首页
METAR-TAF:

METAR-TAF

机场 :

布列斯特機場

布列斯特, 白俄罗斯

纬度: 52-06-30N, 经度: 023-53-48E, 海拔: 143米

当前天气观测

该预报发布于8小时和47分钟前的13:00 UTC
风速16节,风向西,有时为25节阵风
温度 23°C
湿度 65%
气压 1016 hPa
能见度10公里或以上
阴天层高于4000英尺, 积雨云.
雷暴, 小雨

METAR: UMBB 211300Z 28008G13MPS 9999 -TSRA OVC040CB 23/16 Q1016 NOSIG

时间: 00:47 (21:47 UTC)

预报

该预报发布于7小时和42分钟前的14:05 UTC
预报有效从21日的 15点(UTC)到 21日的 24点(UTC)
风速10节,风向西
能见度10公里或以上
多云层高于1500英尺
散云层高于2000英尺, 积雨云.
短暂存在
从 21日的 15点(UTC)到 21日的 18点(UTC)
风速14节,风向多变,有时为23节阵风
能見度: 2100
雷暴, 小雨, 冰雹
短暂存在
从 21日的 18点(UTC)到 21日的 24点(UTC)
风速10节,风向北转西北,有时为19节阵风
能見度: 3000
雷暴, 小雨

TAF: UMBB 211405Z 2115/2124 26005MPS 9999 BKN015 SCT020CB TEMPO 2115/2118 VRB07G12MPS 2100 -TSRAGR TEMPO 2118/2124 34005G10MPS 3000 -TSRA

超过4000个机场的气象观测和天气预报(METAR&TAF报告)。

可查询的气象台以黄色和红色小点在地图上表示。

将鼠标移到小点上方,可查看气象台名称。

然后点击查看天气观测和预报。

如需切换地图:点击带黑十字的绿色按钮放大地图;点击带横线的绿色按钮缩小地图;或者点击绿色箭头查看邻近地区的地图。


METAR-TAF: